sensor_id;sensor_type;location;lat;lon;timestamp;P1;durP1;ratioP1;P2;durP2;ratioP2
75209;SDS011;63796;53.136;14.882;2023-09-07T00:00:33;8.60;;;5.60;;
75209;SDS011;63796;53.136;14.882;2023-09-07T00:03:21;6.40;;;4.80;;
75209;SDS011;63796;53.136;14.882;2023-09-07T00:05:50;6.10;;;4.80;;
75209;SDS011;63796;53.136;14.882;2023-09-07T00:08:17;15.70;;;5.30;;
75209;SDS011;63796;53.136;14.882;2023-09-07T00:10:44;11.80;;;5.10;;
75209;SDS011;63796;53.136;14.882;2023-09-07T00:13:12;9.30;;;5.20;;
75209;SDS011;63796;53.136;14.882;2023-09-07T00:15:39;9.50;;;5.30;;
75209;SDS011;63796;53.136;14.882;2023-09-07T00:18:07;8.00;;;4.80;;
75209;SDS011;63796;53.136;14.882;2023-09-07T00:20:34;12.70;;;6.10;;
75209;SDS011;63796;53.136;14.882;2023-09-07T00:23:01;9.70;;;6.40;;
75209;SDS011;63796;53.136;14.882;2023-09-07T00:25:29;11.20;;;7.20;;
75209;SDS011;63796;53.136;14.882;2023-09-07T00:27:56;11.00;;;8.20;;
75209;SDS011;63796;53.136;14.882;2023-09-07T00:30:24;19.10;;;10.30;;
75209;SDS011;63796;53.136;14.882;2023-09-07T00:32:51;43.20;;;10.30;;
75209;SDS011;63796;53.136;14.882;2023-09-07T00:35:18;31.90;;;6.40;;
75209;SDS011;63796;53.136;14.882;2023-09-07T00:37:46;25.00;;;6.80;;
75209;SDS011;63796;53.136;14.882;2023-09-07T00:40:13;6.10;;;4.80;;
75209;SDS011;63796;53.136;14.882;2023-09-07T00:42:40;6.10;;;5.50;;
75209;SDS011;63796;53.136;14.882;2023-09-07T00:45:08;7.60;;;5.50;;
75209;SDS011;63796;53.136;14.882;2023-09-07T00:47:36;6.60;;;5.90;;
75209;SDS011;63796;53.136;14.882;2023-09-07T00:50:04;8.20;;;6.50;;
75209;SDS011;63796;53.136;14.882;2023-09-07T00:52:34;9.10;;;6.10;;
75209;SDS011;63796;53.136;14.882;2023-09-07T00:55:02;7.20;;;5.90;;
75209;SDS011;63796;53.136;14.882;2023-09-07T00:57:31;14.70;;;6.10;;
75209;SDS011;63796;53.136;14.882;2023-09-07T00:59:58;8.50;;;5.90;;
75209;SDS011;63796;53.136;14.882;2023-09-07T01:02:26;7.60;;;5.30;;
75209;SDS011;63796;53.136;14.882;2023-09-07T01:04:53;6.30;;;5.10;;
75209;SDS011;63796;53.136;14.882;2023-09-07T01:07:24;5.10;;;4.50;;
75209;SDS011;63796;53.136;14.882;2023-09-07T01:09:56;5.20;;;4.60;;
75209;SDS011;63796;53.136;14.882;2023-09-07T01:12:23;5.10;;;4.50;;
75209;SDS011;63796;53.136;14.882;2023-09-07T01:14:51;5.20;;;4.50;;
75209;SDS011;63796;53.136;14.882;2023-09-07T01:17:20;5.20;;;4.60;;
75209;SDS011;63796;53.136;14.882;2023-09-07T01:19:52;9.20;;;4.10;;
75209;SDS011;63796;53.136;14.882;2023-09-07T01:22:20;5.30;;;3.70;;
75209;SDS011;63796;53.136;14.882;2023-09-07T01:24:52;7.70;;;5.00;;
75209;SDS011;63796;53.136;14.882;2023-09-07T01:27:20;7.90;;;6.20;;
75209;SDS011;63796;53.136;14.882;2023-09-07T01:29:47;8.80;;;6.70;;
75209;SDS011;63796;53.136;14.882;2023-09-07T01:32:14;8.80;;;6.80;;
75209;SDS011;63796;53.136;14.882;2023-09-07T01:34:41;6.50;;;5.90;;
75209;SDS011;63796;53.136;14.882;2023-09-07T01:37:09;10.00;;;6.90;;
75209;SDS011;63796;53.136;14.882;2023-09-07T01:39:36;10.90;;;5.80;;
75209;SDS011;63796;53.136;14.882;2023-09-07T01:42:04;8.60;;;6.20;;
75209;SDS011;63796;53.136;14.882;2023-09-07T01:44:31;10.90;;;6.20;;
75209;SDS011;63796;53.136;14.882;2023-09-07T01:46:58;9.40;;;6.70;;
75209;SDS011;63796;53.136;14.882;2023-09-07T01:49:26;8.90;;;6.70;;
75209;SDS011;63796;53.136;14.882;2023-09-07T01:51:53;8.80;;;7.00;;
75209;SDS011;63796;53.136;14.882;2023-09-07T01:54:21;8.70;;;6.90;;
75209;SDS011;63796;53.136;14.882;2023-09-07T01:56:48;7.90;;;6.50;;
75209;SDS011;63796;53.136;14.882;2023-09-07T01:59:16;7.50;;;6.10;;
75209;SDS011;63796;53.136;14.882;2023-09-07T02:01:43;7.10;;;5.90;;
75209;SDS011;63796;53.136;14.882;2023-09-07T02:04:10;6.00;;;5.40;;
75209;SDS011;63796;53.136;14.882;2023-09-07T02:06:37;6.80;;;5.30;;
75209;SDS011;63796;53.136;14.882;2023-09-07T02:09:06;4.70;;;4.20;;
75209;SDS011;63796;53.136;14.882;2023-09-07T02:11:43;5.90;;;5.00;;
75209;SDS011;63796;53.136;14.882;2023-09-07T02:14:11;7.30;;;5.20;;
75209;SDS011;63796;53.136;14.882;2023-09-07T02:16:38;9.40;;;6.40;;
75209;SDS011;63796;53.136;14.882;2023-09-07T02:19:06;6.30;;;5.70;;
75209;SDS011;63796;53.136;14.882;2023-09-07T02:21:36;6.80;;;6.00;;
75209;SDS011;63796;53.136;14.882;2023-09-07T02:24:04;24.60;;;4.60;;
75209;SDS011;63796;53.136;14.882;2023-09-07T02:26:31;12.70;;;5.90;;
75209;SDS011;63796;53.136;14.882;2023-09-07T02:28:59;7.30;;;6.60;;
75209;SDS011;63796;53.136;14.882;2023-09-07T02:31:26;58.90;;;7.00;;
75209;SDS011;63796;53.136;14.882;2023-09-07T02:33:53;7.90;;;6.00;;
75209;SDS011;63796;53.136;14.882;2023-09-07T02:36:21;7.90;;;5.70;;
75209;SDS011;63796;53.136;14.882;2023-09-07T02:38:48;6.90;;;5.90;;
75209;SDS011;63796;53.136;14.882;2023-09-07T02:41:15;8.00;;;6.70;;
75209;SDS011;63796;53.136;14.882;2023-09-07T02:43:43;8.50;;;7.00;;
75209;SDS011;63796;53.136;14.882;2023-09-07T02:46:10;6.30;;;5.70;;
75209;SDS011;63796;53.136;14.882;2023-09-07T02:48:38;5.40;;;4.90;;
75209;SDS011;63796;53.136;14.882;2023-09-07T02:51:05;6.90;;;5.70;;
75209;SDS011;63796;53.136;14.882;2023-09-07T02:53:33;7.40;;;6.00;;
75209;SDS011;63796;53.136;14.882;2023-09-07T02:56:00;5.60;;;5.00;;
75209;SDS011;63796;53.136;14.882;2023-09-07T02:58:31;7.50;;;5.20;;
75209;SDS011;63796;53.136;14.882;2023-09-07T03:01:05;7.20;;;5.40;;
75209;SDS011;63796;53.136;14.882;2023-09-07T03:03:33;5.00;;;4.50;;
75209;SDS011;63796;53.136;14.882;2023-09-07T03:06:08;5.80;;;4.90;;
75209;SDS011;63796;53.136;14.882;2023-09-07T03:08:35;5.50;;;5.00;;
75209;SDS011;63796;53.136;14.882;2023-09-07T03:11:04;5.60;;;4.80;;
75209;SDS011;63796;53.136;14.882;2023-09-07T03:13:32;6.20;;;4.80;;
75209;SDS011;63796;53.136;14.882;2023-09-07T03:16:00;4.70;;;4.10;;
75209;SDS011;63796;53.136;14.882;2023-09-07T03:18:27;6.50;;;4.40;;
75209;SDS011;63796;53.136;14.882;2023-09-07T03:20:58;5.90;;;4.20;;
75209;SDS011;63796;53.136;14.882;2023-09-07T03:23:27;8.30;;;4.90;;
75209;SDS011;63796;53.136;14.882;2023-09-07T03:25:55;4.00;;;3.50;;
75209;SDS011;63796;53.136;14.882;2023-09-07T03:28:22;4.80;;;3.80;;
75209;SDS011;63796;53.136;14.882;2023-09-07T03:30:49;4.10;;;3.70;;
75209;SDS011;63796;53.136;14.882;2023-09-07T03:33:16;5.50;;;4.00;;
75209;SDS011;63796;53.136;14.882;2023-09-07T03:35:44;6.50;;;4.30;;
75209;SDS011;63796;53.136;14.882;2023-09-07T03:38:12;7.00;;;3.90;;
75209;SDS011;63796;53.136;14.882;2023-09-07T03:40:39;7.30;;;3.90;;
75209;SDS011;63796;53.136;14.882;2023-09-07T03:43:07;4.90;;;3.70;;
75209;SDS011;63796;53.136;14.882;2023-09-07T03:45:34;3.40;;;3.10;;
75209;SDS011;63796;53.136;14.882;2023-09-07T03:48:01;3.80;;;3.40;;
75209;SDS011;63796;53.136;14.882;2023-09-07T03:50:29;6.30;;;3.70;;
75209;SDS011;63796;53.136;14.882;2023-09-07T03:52:56;5.30;;;4.00;;
75209;SDS011;63796;53.136;14.882;2023-09-07T03:55:24;4.70;;;4.20;;
75209;SDS011;63796;53.136;14.882;2023-09-07T03:57:51;4.00;;;3.10;;
75209;SDS011;63796;53.136;14.882;2023-09-07T04:00:18;4.30;;;3.90;;
75209;SDS011;63796;53.136;14.882;2023-09-07T04:02:47;4.30;;;3.90;;
75209;SDS011;63796;53.136;14.882;2023-09-07T04:05:15;4.40;;;3.70;;
75209;SDS011;63796;53.136;14.882;2023-09-07T04:07:42;7.30;;;3.90;;
75209;SDS011;63796;53.136;14.882;2023-09-07T04:10:09;6.00;;;3.90;;
75209;SDS011;63796;53.136;14.882;2023-09-07T04:12:37;10.30;;;4.50;;
75209;SDS011;63796;53.136;14.882;2023-09-07T04:15:05;5.40;;;4.70;;
75209;SDS011;63796;53.136;14.882;2023-09-07T04:17:32;4.90;;;4.40;;
75209;SDS011;63796;53.136;14.882;2023-09-07T04:20:08;5.60;;;4.00;;
75209;SDS011;63796;53.136;14.882;2023-09-07T04:22:36;5.80;;;4.20;;
75209;SDS011;63796;53.136;14.882;2023-09-07T04:25:03;5.30;;;4.00;;
75209;SDS011;63796;53.136;14.882;2023-09-07T04:27:31;5.00;;;4.50;;
75209;SDS011;63796;53.136;14.882;2023-09-07T04:30:00;7.70;;;4.60;;
75209;SDS011;63796;53.136;14.882;2023-09-07T04:32:28;7.30;;;4.60;;
75209;SDS011;63796;53.136;14.882;2023-09-07T04:34:56;4.70;;;4.20;;
75209;SDS011;63796;53.136;14.882;2023-09-07T04:37:24;5.70;;;4.40;;
75209;SDS011;63796;53.136;14.882;2023-09-07T04:39:52;6.20;;;4.30;;
75209;SDS011;63796;53.136;14.882;2023-09-07T04:42:20;4.80;;;4.10;;
75209;SDS011;63796;53.136;14.882;2023-09-07T04:44:48;5.00;;;4.40;;
75209;SDS011;63796;53.136;14.882;2023-09-07T04:47:16;4.80;;;4.20;;
75209;SDS011;63796;53.136;14.882;2023-09-07T04:49:48;5.20;;;3.90;;
75209;SDS011;63796;53.136;14.882;2023-09-07T04:52:16;6.70;;;4.70;;
75209;SDS011;63796;53.136;14.882;2023-09-07T04:54:44;24.20;;;6.00;;
75209;SDS011;63796;53.136;14.882;2023-09-07T04:57:15;7.00;;;3.80;;
75209;SDS011;63796;53.136;14.882;2023-09-07T04:59:43;4.10;;;3.60;;
75209;SDS011;63796;53.136;14.882;2023-09-07T05:02:10;14.90;;;4.20;;
75209;SDS011;63796;53.136;14.882;2023-09-07T05:04:39;8.40;;;4.30;;
75209;SDS011;63796;53.136;14.882;2023-09-07T05:07:07;14.10;;;5.20;;
75209;SDS011;63796;53.136;14.882;2023-09-07T05:09:34;8.00;;;5.10;;
75209;SDS011;63796;53.136;14.882;2023-09-07T05:12:02;8.20;;;4.90;;
75209;SDS011;63796;53.136;14.882;2023-09-07T05:14:30;12.00;;;4.60;;
75209;SDS011;63796;53.136;14.882;2023-09-07T05:16:57;7.60;;;4.50;;
75209;SDS011;63796;53.136;14.882;2023-09-07T05:19:24;8.80;;;4.60;;
75209;SDS011;63796;53.136;14.882;2023-09-07T05:21:52;8.40;;;4.30;;
75209;SDS011;63796;53.136;14.882;2023-09-07T05:24:20;5.00;;;4.10;;
75209;SDS011;63796;53.136;14.882;2023-09-07T05:26:47;8.50;;;4.40;;
75209;SDS011;63796;53.136;14.882;2023-09-07T05:29:15;10.20;;;5.40;;
75209;SDS011;63796;53.136;14.882;2023-09-07T05:31:42;7.90;;;5.20;;
75209;SDS011;63796;53.136;14.882;2023-09-07T05:34:09;12.30;;;5.00;;
75209;SDS011;63796;53.136;14.882;2023-09-07T05:36:37;7.40;;;5.20;;
75209;SDS011;63796;53.136;14.882;2023-09-07T05:39:04;7.90;;;5.20;;
75209;SDS011;63796;53.136;14.882;2023-09-07T05:41:32;7.40;;;5.50;;
75209;SDS011;63796;53.136;14.882;2023-09-07T05:44:00;11.60;;;5.80;;
75209;SDS011;63796;53.136;14.882;2023-09-07T05:46:27;7.00;;;5.50;;
75209;SDS011;63796;53.136;14.882;2023-09-07T05:48:55;9.50;;;5.30;;
75209;SDS011;63796;53.136;14.882;2023-09-07T05:51:22;8.20;;;5.20;;
75209;SDS011;63796;53.136;14.882;2023-09-07T05:53:50;8.00;;;5.50;;
75209;SDS011;63796;53.136;14.882;2023-09-07T05:56:17;7.30;;;5.30;;
75209;SDS011;63796;53.136;14.882;2023-09-07T05:58:44;10.50;;;5.00;;
75209;SDS011;63796;53.136;14.882;2023-09-07T06:01:12;10.20;;;7.90;;
75209;SDS011;63796;53.136;14.882;2023-09-07T06:03:40;9.30;;;6.30;;
75209;SDS011;63796;53.136;14.882;2023-09-07T06:06:08;10.00;;;5.80;;
75209;SDS011;63796;53.136;14.882;2023-09-07T06:08:36;7.00;;;5.30;;
75209;SDS011;63796;53.136;14.882;2023-09-07T06:11:03;8.40;;;5.80;;
75209;SDS011;63796;53.136;14.882;2023-09-07T06:13:31;9.20;;;8.30;;
75209;SDS011;63796;53.136;14.882;2023-09-07T06:15:59;17.10;;;5.90;;
75209;SDS011;63796;53.136;14.882;2023-09-07T06:18:27;9.30;;;6.20;;
75209;SDS011;63796;53.136;14.882;2023-09-07T06:20:56;6.40;;;5.50;;
75209;SDS011;63796;53.136;14.882;2023-09-07T06:23:23;7.00;;;5.90;;
75209;SDS011;63796;53.136;14.882;2023-09-07T06:25:51;7.60;;;5.90;;
75209;SDS011;63796;53.136;14.882;2023-09-07T06:28:19;8.20;;;5.30;;
75209;SDS011;63796;53.136;14.882;2023-09-07T06:30:46;6.80;;;5.70;;
75209;SDS011;63796;53.136;14.882;2023-09-07T06:33:14;7.60;;;5.60;;
75209;SDS011;63796;53.136;14.882;2023-09-07T06:35:41;7.00;;;5.30;;
75209;SDS011;63796;53.136;14.882;2023-09-07T06:38:08;8.80;;;6.30;;
75209;SDS011;63796;53.136;14.882;2023-09-07T06:40:40;10.80;;;6.50;;
75209;SDS011;63796;53.136;14.882;2023-09-07T06:43:07;14.50;;;6.60;;
75209;SDS011;63796;53.136;14.882;2023-09-07T06:45:35;9.90;;;6.40;;
75209;SDS011;63796;53.136;14.882;2023-09-07T06:48:03;8.40;;;5.90;;
75209;SDS011;63796;53.136;14.882;2023-09-07T06:50:31;9.40;;;6.20;;
75209;SDS011;63796;53.136;14.882;2023-09-07T06:52:59;11.60;;;6.70;;
75209;SDS011;63796;53.136;14.882;2023-09-07T06:55:26;9.10;;;5.80;;
75209;SDS011;63796;53.136;14.882;2023-09-07T06:57:54;8.30;;;5.90;;
75209;SDS011;63796;53.136;14.882;2023-09-07T07:00:23;8.30;;;6.10;;
75209;SDS011;63796;53.136;14.882;2023-09-07T07:02:50;13.50;;;5.70;;
75209;SDS011;63796;53.136;14.882;2023-09-07T07:05:18;12.90;;;6.40;;
75209;SDS011;63796;53.136;14.882;2023-09-07T07:07:47;8.20;;;6.10;;
75209;SDS011;63796;53.136;14.882;2023-09-07T07:10:14;9.10;;;5.90;;
75209;SDS011;63796;53.136;14.882;2023-09-07T07:12:43;8.30;;;5.40;;
75209;SDS011;63796;53.136;14.882;2023-09-07T07:15:10;5.80;;;5.20;;
75209;SDS011;63796;53.136;14.882;2023-09-07T07:17:39;6.10;;;5.20;;
75209;SDS011;63796;53.136;14.882;2023-09-07T07:20:07;10.10;;;5.40;;
75209;SDS011;63796;53.136;14.882;2023-09-07T07:22:35;6.50;;;5.90;;
75209;SDS011;63796;53.136;14.882;2023-09-07T07:25:03;9.00;;;5.60;;
75209;SDS011;63796;53.136;14.882;2023-09-07T07:27:32;6.60;;;4.90;;
75209;SDS011;63796;53.136;14.882;2023-09-07T07:30:00;7.10;;;5.30;;
75209;SDS011;63796;53.136;14.882;2023-09-07T07:32:28;7.20;;;5.00;;
75209;SDS011;63796;53.136;14.882;2023-09-07T07:34:56;9.00;;;5.60;;
75209;SDS011;63796;53.136;14.882;2023-09-07T07:37:24;13.80;;;5.70;;
75209;SDS011;63796;53.136;14.882;2023-09-07T07:39:51;7.00;;;4.80;;
75209;SDS011;63796;53.136;14.882;2023-09-07T07:42:19;7.10;;;5.20;;
75209;SDS011;63796;53.136;14.882;2023-09-07T07:44:47;8.40;;;5.30;;
75209;SDS011;63796;53.136;14.882;2023-09-07T07:47:15;7.60;;;4.70;;
75209;SDS011;63796;53.136;14.882;2023-09-07T07:49:42;6.40;;;5.80;;
75209;SDS011;63796;53.136;14.882;2023-09-07T07:52:10;6.30;;;5.60;;
75209;SDS011;63796;53.136;14.882;2023-09-07T07:54:37;5.70;;;5.20;;
75209;SDS011;63796;53.136;14.882;2023-09-07T07:57:05;6.60;;;5.90;;
75209;SDS011;63796;53.136;14.882;2023-09-07T07:59:33;7.90;;;5.30;;
75209;SDS011;63796;53.136;14.882;2023-09-07T08:02:01;11.50;;;5.40;;
75209;SDS011;63796;53.136;14.882;2023-09-07T08:04:29;9.20;;;5.70;;
75209;SDS011;63796;53.136;14.882;2023-09-07T08:06:59;9.40;;;5.20;;
75209;SDS011;63796;53.136;14.882;2023-09-07T08:09:33;6.80;;;5.40;;
75209;SDS011;63796;53.136;14.882;2023-09-07T08:12:01;11.40;;;5.20;;
75209;SDS011;63796;53.136;14.882;2023-09-07T08:14:31;10.10;;;5.40;;
75209;SDS011;63796;53.136;14.882;2023-09-07T08:16:58;5.40;;;5.00;;
75209;SDS011;63796;53.136;14.882;2023-09-07T08:19:27;5.40;;;4.80;;
75209;SDS011;63796;53.136;14.882;2023-09-07T08:21:58;6.20;;;4.90;;
75209;SDS011;63796;53.136;14.882;2023-09-07T08:24:25;5.10;;;4.60;;
75209;SDS011;63796;53.136;14.882;2023-09-07T08:26:53;8.60;;;5.10;;
75209;SDS011;63796;53.136;14.882;2023-09-07T08:29:23;6.00;;;4.80;;
75209;SDS011;63796;53.136;14.882;2023-09-07T08:31:54;11.70;;;5.10;;
75209;SDS011;63796;53.136;14.882;2023-09-07T08:34:25;6.40;;;5.20;;
75209;SDS011;63796;53.136;14.882;2023-09-07T08:36:53;12.30;;;5.30;;
75209;SDS011;63796;53.136;14.882;2023-09-07T08:39:22;8.20;;;5.60;;
75209;SDS011;63796;53.136;14.882;2023-09-07T08:41:50;7.60;;;5.50;;
75209;SDS011;63796;53.136;14.882;2023-09-07T08:44:29;6.40;;;5.30;;
75209;SDS011;63796;53.136;14.882;2023-09-07T08:46:57;6.10;;;5.20;;
75209;SDS011;63796;53.136;14.882;2023-09-07T08:49:27;6.40;;;5.30;;
75209;SDS011;63796;53.136;14.882;2023-09-07T08:52:01;7.50;;;4.80;;
75209;SDS011;63796;53.136;14.882;2023-09-07T08:54:29;8.60;;;5.70;;
75209;SDS011;63796;53.136;14.882;2023-09-07T08:56:58;8.50;;;5.00;;
75209;SDS011;63796;53.136;14.882;2023-09-07T08:59:26;7.00;;;5.40;;
75209;SDS011;63796;53.136;14.882;2023-09-07T09:01:57;10.00;;;6.10;;
75209;SDS011;63796;53.136;14.882;2023-09-07T09:04:28;6.20;;;5.70;;
75209;SDS011;63796;53.136;14.882;2023-09-07T09:06:56;5.50;;;5.10;;
75209;SDS011;63796;53.136;14.882;2023-09-07T09:09:24;7.20;;;5.50;;
75209;SDS011;63796;53.136;14.882;2023-09-07T09:11:52;8.40;;;6.60;;
75209;SDS011;63796;53.136;14.882;2023-09-07T09:14:19;7.40;;;6.40;;
75209;SDS011;63796;53.136;14.882;2023-09-07T09:16:49;6.40;;;5.90;;
75209;SDS011;63796;53.136;14.882;2023-09-07T09:19:18;7.50;;;6.60;;
75209;SDS011;63796;53.136;14.882;2023-09-07T09:21:45;6.80;;;6.20;;
75209;SDS011;63796;53.136;14.882;2023-09-07T09:24:13;7.90;;;7.10;;
75209;SDS011;63796;53.136;14.882;2023-09-07T09:26:42;8.30;;;7.60;;
75209;SDS011;63796;53.136;14.882;2023-09-07T09:29:09;8.70;;;7.60;;
75209;SDS011;63796;53.136;14.882;2023-09-07T09:31:39;11.10;;;6.70;;
75209;SDS011;63796;53.136;14.882;2023-09-07T09:34:07;9.30;;;8.40;;
75209;SDS011;63796;53.136;14.882;2023-09-07T09:36:36;8.80;;;8.00;;
75209;SDS011;63796;53.136;14.882;2023-09-07T09:39:04;10.10;;;9.10;;
75209;SDS011;63796;53.136;14.882;2023-09-07T09:41:32;12.00;;;8.90;;
75209;SDS011;63796;53.136;14.882;2023-09-07T09:44:05;10.80;;;10.10;;
75209;SDS011;63796;53.136;14.882;2023-09-07T09:46:33;9.10;;;8.40;;
75209;SDS011;63796;53.136;14.882;2023-09-07T09:49:04;10.00;;;9.20;;
75209;SDS011;63796;53.136;14.882;2023-09-07T09:51:32;8.80;;;8.20;;
75209;SDS011;63796;53.136;14.882;2023-09-07T09:54:01;9.50;;;8.80;;
75209;SDS011;63796;53.136;14.882;2023-09-07T09:56:29;8.70;;;7.90;;
75209;SDS011;63796;53.136;14.882;2023-09-07T09:58:57;8.90;;;8.10;;
75209;SDS011;63796;53.136;14.882;2023-09-07T10:01:25;8.80;;;8.20;;
75209;SDS011;63796;53.136;14.882;2023-09-07T10:03:53;9.00;;;8.40;;
75209;SDS011;63796;53.136;14.882;2023-09-07T10:06:25;9.50;;;8.80;;
75209;SDS011;63796;53.136;14.882;2023-09-07T10:08:59;10.30;;;9.40;;
75209;SDS011;63796;53.136;14.882;2023-09-07T10:11:30;9.10;;;8.50;;
75209;SDS011;63796;53.136;14.882;2023-09-07T10:14:00;10.00;;;9.00;;
75209;SDS011;63796;53.136;14.882;2023-09-07T10:16:28;10.20;;;9.50;;
75209;SDS011;63796;53.136;14.882;2023-09-07T10:18:55;10.70;;;9.90;;
75209;SDS011;63796;53.136;14.882;2023-09-07T10:21:24;10.20;;;9.30;;
75209;SDS011;63796;53.136;14.882;2023-09-07T10:23:53;10.60;;;10.00;;
75209;SDS011;63796;53.136;14.882;2023-09-07T10:26:21;10.30;;;9.60;;
75209;SDS011;63796;53.136;14.882;2023-09-07T10:28:59;11.10;;;10.30;;
75209;SDS011;63796;53.136;14.882;2023-09-07T10:31:27;9.80;;;9.00;;
75209;SDS011;63796;53.136;14.882;2023-09-07T10:34:17;10.30;;;9.40;;
75209;SDS011;63796;53.136;14.882;2023-09-07T10:36:45;9.40;;;8.50;;
75209;SDS011;63796;53.136;14.882;2023-09-07T10:39:13;10.60;;;9.80;;
75209;SDS011;63796;53.136;14.882;2023-09-07T10:41:45;14.00;;;10.00;;
75209;SDS011;63796;53.136;14.882;2023-09-07T10:44:13;10.20;;;9.30;;
75209;SDS011;63796;53.136;14.882;2023-09-07T10:46:41;9.60;;;9.00;;
75209;SDS011;63796;53.136;14.882;2023-09-07T10:49:11;10.30;;;9.30;;
75209;SDS011;63796;53.136;14.882;2023-09-07T10:51:45;10.00;;;9.10;;
75209;SDS011;63796;53.136;14.882;2023-09-07T10:54:16;10.20;;;9.50;;
75209;SDS011;63796;53.136;14.882;2023-09-07T10:56:45;8.90;;;8.10;;
75209;SDS011;63796;53.136;14.882;2023-09-07T10:59:13;30.40;;;11.90;;
75209;SDS011;63796;53.136;14.882;2023-09-07T11:01:43;9.70;;;8.70;;
75209;SDS011;63796;53.136;14.882;2023-09-07T11:04:11;8.40;;;7.70;;
75209;SDS011;63796;53.136;14.882;2023-09-07T11:06:40;10.40;;;9.40;;
75209;SDS011;63796;53.136;14.882;2023-09-07T11:09:09;10.20;;;9.50;;
75209;SDS011;63796;53.136;14.882;2023-09-07T11:11:38;9.30;;;8.60;;
75209;SDS011;63796;53.136;14.882;2023-09-07T11:14:06;9.30;;;8.70;;
75209;SDS011;63796;53.136;14.882;2023-09-07T11:16:34;8.40;;;7.80;;
75209;SDS011;63796;53.136;14.882;2023-09-07T11:19:06;9.70;;;8.90;;
75209;SDS011;63796;53.136;14.882;2023-09-07T11:21:35;8.50;;;7.80;;
75209;SDS011;63796;53.136;14.882;2023-09-07T11:24:03;8.80;;;8.10;;
75209;SDS011;63796;53.136;14.882;2023-09-07T11:26:44;8.40;;;7.80;;
75209;SDS011;63796;53.136;14.882;2023-09-07T11:29:16;10.20;;;9.40;;
75209;SDS011;63796;53.136;14.882;2023-09-07T11:31:46;8.80;;;8.10;;
75209;SDS011;63796;53.136;14.882;2023-09-07T11:34:15;9.50;;;8.80;;
75209;SDS011;63796;53.136;14.882;2023-09-07T11:36:43;8.10;;;7.50;;
75209;SDS011;63796;53.136;14.882;2023-09-07T11:39:10;7.90;;;7.40;;
75209;SDS011;63796;53.136;14.882;2023-09-07T11:41:42;8.20;;;7.80;;
75209;SDS011;63796;53.136;14.882;2023-09-07T11:44:11;9.00;;;8.30;;
75209;SDS011;63796;53.136;14.882;2023-09-07T11:46:39;7.00;;;6.60;;
75209;SDS011;63796;53.136;14.882;2023-09-07T11:49:07;7.40;;;6.80;;
75209;SDS011;63796;53.136;14.882;2023-09-07T11:51:37;7.20;;;6.60;;
75209;SDS011;63796;53.136;14.882;2023-09-07T11:54:05;7.80;;;7.00;;
75209;SDS011;63796;53.136;14.882;2023-09-07T11:56:32;6.70;;;6.20;;
75209;SDS011;63796;53.136;14.882;2023-09-07T11:59:02;7.30;;;6.40;;
75209;SDS011;63796;53.136;14.882;2023-09-07T12:01:30;8.60;;;6.60;;
75209;SDS011;63796;53.136;14.882;2023-09-07T12:03:57;6.90;;;6.40;;
75209;SDS011;63796;53.136;14.882;2023-09-07T12:06:25;6.60;;;6.10;;
75209;SDS011;63796;53.136;14.882;2023-09-07T12:09:06;8.40;;;7.70;;
75209;SDS011;63796;53.136;14.882;2023-09-07T12:11:34;6.70;;;6.20;;
75209;SDS011;63796;53.136;14.882;2023-09-07T12:14:02;6.60;;;6.00;;
75209;SDS011;63796;53.136;14.882;2023-09-07T12:16:29;6.20;;;5.70;;
75209;SDS011;63796;53.136;14.882;2023-09-07T12:18:58;5.90;;;5.50;;
75209;SDS011;63796;53.136;14.882;2023-09-07T12:21:25;6.30;;;5.50;;
75209;SDS011;63796;53.136;14.882;2023-09-07T12:23:52;7.10;;;6.20;;
75209;SDS011;63796;53.136;14.882;2023-09-07T12:26:20;5.80;;;5.20;;
75209;SDS011;63796;53.136;14.882;2023-09-07T12:28:48;5.20;;;4.80;;
75209;SDS011;63796;53.136;14.882;2023-09-07T12:31:15;6.10;;;4.90;;
75209;SDS011;63796;53.136;14.882;2023-09-07T12:33:44;5.50;;;4.90;;
75209;SDS011;63796;53.136;14.882;2023-09-07T12:36:12;5.90;;;4.70;;
75209;SDS011;63796;53.136;14.882;2023-09-07T12:38:39;10.60;;;4.40;;
75209;SDS011;63796;53.136;14.882;2023-09-07T12:41:07;5.50;;;3.80;;
75209;SDS011;63796;53.136;14.882;2023-09-07T12:43:36;7.80;;;3.90;;
75209;SDS011;63796;53.136;14.882;2023-09-07T12:46:03;4.60;;;3.70;;
75209;SDS011;63796;53.136;14.882;2023-09-07T12:48:31;6.00;;;3.60;;
75209;SDS011;63796;53.136;14.882;2023-09-07T12:50:58;5.40;;;3.30;;
75209;SDS011;63796;53.136;14.882;2023-09-07T12:53:25;7.00;;;3.20;;
75209;SDS011;63796;53.136;14.882;2023-09-07T12:55:53;5.00;;;3.80;;
75209;SDS011;63796;53.136;14.882;2023-09-07T12:58:21;4.80;;;3.60;;
75209;SDS011;63796;53.136;14.882;2023-09-07T13:00:48;6.60;;;3.70;;
75209;SDS011;63796;53.136;14.882;2023-09-07T13:03:19;3.50;;;3.20;;
75209;SDS011;63796;53.136;14.882;2023-09-07T13:05:47;3.60;;;3.20;;
75209;SDS011;63796;53.136;14.882;2023-09-07T13:08:15;4.50;;;3.80;;
75209;SDS011;63796;53.136;14.882;2023-09-07T13:10:43;3.50;;;3.20;;
75209;SDS011;63796;53.136;14.882;2023-09-07T13:13:10;8.80;;;3.70;;
75209;SDS011;63796;53.136;14.882;2023-09-07T13:15:37;5.10;;;3.10;;
75209;SDS011;63796;53.136;14.882;2023-09-07T13:18:05;5.40;;;3.50;;
75209;SDS011;63796;53.136;14.882;2023-09-07T13:20:33;5.50;;;3.40;;
75209;SDS011;63796;53.136;14.882;2023-09-07T13:23:00;6.30;;;3.10;;
75209;SDS011;63796;53.136;14.882;2023-09-07T13:25:28;3.50;;;3.00;;
75209;SDS011;63796;53.136;14.882;2023-09-07T13:27:55;4.40;;;3.50;;
75209;SDS011;63796;53.136;14.882;2023-09-07T13:30:25;3.60;;;3.00;;
75209;SDS011;63796;53.136;14.882;2023-09-07T13:32:52;11.40;;;3.90;;
75209;SDS011;63796;53.136;14.882;2023-09-07T13:35:19;4.00;;;3.00;;
75209;SDS011;63796;53.136;14.882;2023-09-07T13:37:47;142.60;;;15.80;;
75209;SDS011;63796;53.136;14.882;2023-09-07T13:40:15;10.90;;;3.50;;
75209;SDS011;63796;53.136;14.882;2023-09-07T13:42:42;6.20;;;3.30;;
75209;SDS011;63796;53.136;14.882;2023-09-07T13:45:10;3.10;;;2.80;;
75209;SDS011;63796;53.136;14.882;2023-09-07T13:47:38;4.70;;;2.90;;
75209;SDS011;63796;53.136;14.882;2023-09-07T13:50:06;4.20;;;3.10;;
75209;SDS011;63796;53.136;14.882;2023-09-07T13:52:33;3.60;;;2.70;;
75209;SDS011;63796;53.136;14.882;2023-09-07T13:55:01;5.50;;;2.90;;
75209;SDS011;63796;53.136;14.882;2023-09-07T13:57:28;3.90;;;3.00;;
75209;SDS011;63796;53.136;14.882;2023-09-07T13:59:55;5.90;;;3.00;;
75209;SDS011;63796;53.136;14.882;2023-09-07T14:02:23;3.30;;;2.90;;
75209;SDS011;63796;53.136;14.882;2023-09-07T14:04:51;4.00;;;2.90;;
75209;SDS011;63796;53.136;14.882;2023-09-07T14:07:18;4.30;;;3.10;;
75209;SDS011;63796;53.136;14.882;2023-09-07T14:09:46;5.50;;;3.50;;
75209;SDS011;63796;53.136;14.882;2023-09-07T14:12:13;3.70;;;3.10;;
75209;SDS011;63796;53.136;14.882;2023-09-07T14:14:40;10.60;;;3.50;;
75209;SDS011;63796;53.136;14.882;2023-09-07T14:17:08;4.10;;;3.00;;
75209;SDS011;63796;53.136;14.882;2023-09-07T14:19:35;6.20;;;3.60;;
75209;SDS011;63796;53.136;14.882;2023-09-07T14:22:03;4.30;;;3.20;;
75209;SDS011;63796;53.136;14.882;2023-09-07T14:24:31;3.50;;;3.20;;
75209;SDS011;63796;53.136;14.882;2023-09-07T14:26:58;3.30;;;3.00;;
75209;SDS011;63796;53.136;14.882;2023-09-07T14:29:25;4.40;;;3.10;;
75209;SDS011;63796;53.136;14.882;2023-09-07T14:31:54;7.60;;;3.80;;
75209;SDS011;63796;53.136;14.882;2023-09-07T14:34:22;5.50;;;3.30;;
75209;SDS011;63796;53.136;14.882;2023-09-07T14:36:50;5.50;;;3.20;;